Juan Dias, Panama
Current Conditions -  °F | °C
As of 8:00 AM on Friday 24 Oct 2014 (Local Time) from MPMG Reporting Station
Few Clouds Few Clouds  
Wind Chill: 79°   Ceiling: Unl
Heat Index: 82°   Visibility: 6mi
Dew Point: 73°   Wind: 1mph
Humidity: 83%   Direction: NA
Pressure: 29.88"   Gusts: NA
Location:  8.97°N, 79.51°W
Report Text: MPMG 241300Z VRB01KT 9000 FEW020 26/23 Q1012 NOSIG
Loading
Personal Weather Stations






























Interactive Weather Map
Tropical Storm Tracking
New forecast layout! Learn more

10-Day Weather Forecast

Advertisements
Track Severe Weather on mobile